sensor_id;sensor_type;location;lat;lon;timestamp;temperature;humidity
3986;DHT22;2007;48.750;9.278;2023-02-23T00:01:51;15.30;52.60
3986;DHT22;2007;48.750;9.278;2023-02-23T00:04:20;15.30;52.60
3986;DHT22;2007;48.750;9.278;2023-02-23T00:06:49;15.30;52.70
3986;DHT22;2007;48.750;9.278;2023-02-23T00:09:18;15.30;52.60
3986;DHT22;2007;48.750;9.278;2023-02-23T00:11:50;15.30;52.70
3986;DHT22;2007;48.750;9.278;2023-02-23T00:14:18;15.30;52.60
3986;DHT22;2007;48.750;9.278;2023-02-23T00:16:46;15.30;52.60
3986;DHT22;2007;48.750;9.278;2023-02-23T00:19:14;15.30;52.60
3986;DHT22;2007;48.750;9.278;2023-02-23T00:21:44;15.30;52.60
3986;DHT22;2007;48.750;9.278;2023-02-23T00:24:13;15.30;52.60
3986;DHT22;2007;48.750;9.278;2023-02-23T00:26:41;15.30;52.70
3986;DHT22;2007;48.750;9.278;2023-02-23T00:29:13;15.30;52.70
3986;DHT22;2007;48.750;9.278;2023-02-23T00:31:43;15.30;52.60
3986;DHT22;2007;48.750;9.278;2023-02-23T00:34:13;15.30;52.70
3986;DHT22;2007;48.750;9.278;2023-02-23T00:36:41;15.30;52.60
3986;DHT22;2007;48.750;9.278;2023-02-23T00:39:11;15.30;52.60
3986;DHT22;2007;48.750;9.278;2023-02-23T00:41:44;15.30;52.60
3986;DHT22;2007;48.750;9.278;2023-02-23T00:44:13;15.30;52.70
3986;DHT22;2007;48.750;9.278;2023-02-23T00:46:42;15.30;52.70
3986;DHT22;2007;48.750;9.278;2023-02-23T00:49:12;15.30;52.70
3986;DHT22;2007;48.750;9.278;2023-02-23T00:51:40;15.30;52.70
3986;DHT22;2007;48.750;9.278;2023-02-23T00:54:12;15.30;52.60
3986;DHT22;2007;48.750;9.278;2023-02-23T00:56:41;15.30;52.60
3986;DHT22;2007;48.750;9.278;2023-02-23T00:59:09;15.30;52.60
3986;DHT22;2007;48.750;9.278;2023-02-23T01:01:38;15.30;52.60
3986;DHT22;2007;48.750;9.278;2023-02-23T01:04:08;15.30;53.30
3986;DHT22;2007;48.750;9.278;2023-02-23T01:06:36;15.30;52.60
3986;DHT22;2007;48.750;9.278;2023-02-23T01:09:07;15.30;52.60
3986;DHT22;2007;48.750;9.278;2023-02-23T01:11:37;15.30;52.60
3986;DHT22;2007;48.750;9.278;2023-02-23T01:14:09;15.30;52.60
3986;DHT22;2007;48.750;9.278;2023-02-23T01:16:37;15.30;52.60
3986;DHT22;2007;48.750;9.278;2023-02-23T01:19:05;15.30;52.70
3986;DHT22;2007;48.750;9.278;2023-02-23T01:21:35;15.30;52.70
3986;DHT22;2007;48.750;9.278;2023-02-23T01:24:04;15.30;52.60
3986;DHT22;2007;48.750;9.278;2023-02-23T01:26:34;15.30;52.70
3986;DHT22;2007;48.750;9.278;2023-02-23T01:29:06;15.30;52.60
3986;DHT22;2007;48.750;9.278;2023-02-23T01:31:36;15.30;52.60
3986;DHT22;2007;48.750;9.278;2023-02-23T01:34:05;15.30;52.60
3986;DHT22;2007;48.750;9.278;2023-02-23T01:36:35;15.30;52.60
3986;DHT22;2007;48.750;9.278;2023-02-23T01:39:06;15.30;52.60
3986;DHT22;2007;48.750;9.278;2023-02-23T01:41:35;15.30;52.70
3986;DHT22;2007;48.750;9.278;2023-02-23T01:44:06;15.30;52.70
3986;DHT22;2007;48.750;9.278;2023-02-23T01:46:36;15.30;52.60
3986;DHT22;2007;48.750;9.278;2023-02-23T01:49:06;15.30;52.70
3986;DHT22;2007;48.750;9.278;2023-02-23T01:51:39;15.30;52.70
3986;DHT22;2007;48.750;9.278;2023-02-23T01:54:11;15.30;52.70
3986;DHT22;2007;48.750;9.278;2023-02-23T01:56:42;15.30;52.70
3986;DHT22;2007;48.750;9.278;2023-02-23T01:59:13;15.30;52.70
3986;DHT22;2007;48.750;9.278;2023-02-23T02:01:43;15.30;52.70
3986;DHT22;2007;48.750;9.278;2023-02-23T02:04:11;15.30;52.70
3986;DHT22;2007;48.750;9.278;2023-02-23T02:06:43;15.30;52.70
3986;DHT22;2007;48.750;9.278;2023-02-23T02:09:14;15.30;52.70
3986;DHT22;2007;48.750;9.278;2023-02-23T02:11:43;15.30;52.70
3986;DHT22;2007;48.750;9.278;2023-02-23T02:14:15;15.30;52.70
3986;DHT22;2007;48.750;9.278;2023-02-23T02:26:03;15.30;52.70
3986;DHT22;2007;48.750;9.278;2023-02-23T02:29:00;15.30;52.70
3986;DHT22;2007;48.750;9.278;2023-02-23T02:32:14;15.30;52.70
3986;DHT22;2007;48.750;9.278;2023-02-23T02:37:57;15.30;53.30
3986;DHT22;2007;48.750;9.278;2023-02-23T02:40:34;15.30;52.70
3986;DHT22;2007;48.750;9.278;2023-02-23T02:43:10;15.30;52.70
3986;DHT22;2007;48.750;9.278;2023-02-23T02:45:47;15.30;52.70
3986;DHT22;2007;48.750;9.278;2023-02-23T02:48:23;15.30;52.70
3986;DHT22;2007;48.750;9.278;2023-02-23T02:51:02;15.30;52.70
3986;DHT22;2007;48.750;9.278;2023-02-23T02:53:40;15.30;52.70
3986;DHT22;2007;48.750;9.278;2023-02-23T02:56:13;15.30;52.70
3986;DHT22;2007;48.750;9.278;2023-02-23T02:58:45;15.30;52.70
3986;DHT22;2007;48.750;9.278;2023-02-23T03:01:16;15.30;52.80
3986;DHT22;2007;48.750;9.278;2023-02-23T03:04:18;15.30;52.70
3986;DHT22;2007;48.750;9.278;2023-02-23T03:07:09;15.30;52.80
3986;DHT22;2007;48.750;9.278;2023-02-23T03:10:02;15.30;52.70
3986;DHT22;2007;48.750;9.278;2023-02-23T03:12:56;15.30;52.70
3986;DHT22;2007;48.750;9.278;2023-02-23T03:15:53;15.30;52.70
3986;DHT22;2007;48.750;9.278;2023-02-23T03:18:56;15.30;52.70
3986;DHT22;2007;48.750;9.278;2023-02-23T03:21:48;15.30;52.70
3986;DHT22;2007;48.750;9.278;2023-02-23T03:24:39;15.30;52.70
3986;DHT22;2007;48.750;9.278;2023-02-23T03:27:34;15.30;52.80
3986;DHT22;2007;48.750;9.278;2023-02-23T03:30:28;15.30;52.70
3986;DHT22;2007;48.750;9.278;2023-02-23T03:33:23;15.30;52.70
3986;DHT22;2007;48.750;9.278;2023-02-23T03:36:18;15.30;52.70
3986;DHT22;2007;48.750;9.278;2023-02-23T03:39:11;15.30;52.70
3986;DHT22;2007;48.750;9.278;2023-02-23T03:42:01;15.30;52.70
3986;DHT22;2007;48.750;9.278;2023-02-23T03:44:50;15.30;52.70
3986;DHT22;2007;48.750;9.278;2023-02-23T03:47:38;15.30;52.80
3986;DHT22;2007;48.750;9.278;2023-02-23T03:50:28;15.30;52.80
3986;DHT22;2007;48.750;9.278;2023-02-23T03:53:17;15.30;52.80
3986;DHT22;2007;48.750;9.278;2023-02-23T03:56:07;15.30;52.80
3986;DHT22;2007;48.750;9.278;2023-02-23T03:58:57;15.30;52.80
3986;DHT22;2007;48.750;9.278;2023-02-23T04:01:45;15.30;52.80
3986;DHT22;2007;48.750;9.278;2023-02-23T04:04:32;15.30;52.80
3986;DHT22;2007;48.750;9.278;2023-02-23T04:07:19;15.30;52.70
3986;DHT22;2007;48.750;9.278;2023-02-23T04:10:08;15.30;52.70
3986;DHT22;2007;48.750;9.278;2023-02-23T04:12:58;15.30;52.80
3986;DHT22;2007;48.750;9.278;2023-02-23T04:15:46;15.30;52.80
3986;DHT22;2007;48.750;9.278;2023-02-23T04:18:17;15.30;52.80
3986;DHT22;2007;48.750;9.278;2023-02-23T04:20:47;15.30;52.80
3986;DHT22;2007;48.750;9.278;2023-02-23T04:23:15;15.30;52.80
3986;DHT22;2007;48.750;9.278;2023-02-23T04:25:43;15.30;52.80
3986;DHT22;2007;48.750;9.278;2023-02-23T04:28:11;15.30;52.80
3986;DHT22;2007;48.750;9.278;2023-02-23T04:30:39;15.30;52.80
3986;DHT22;2007;48.750;9.278;2023-02-23T04:33:07;15.30;52.80
3986;DHT22;2007;48.750;9.278;2023-02-23T04:35:37;15.30;52.80
3986;DHT22;2007;48.750;9.278;2023-02-23T04:38:05;15.30;52.80
3986;DHT22;2007;48.750;9.278;2023-02-23T04:40:34;15.30;52.80
3986;DHT22;2007;48.750;9.278;2023-02-23T04:43:02;15.30;52.80
3986;DHT22;2007;48.750;9.278;2023-02-23T04:45:30;15.30;52.80
3986;DHT22;2007;48.750;9.278;2023-02-23T04:47:58;15.30;52.80
3986;DHT22;2007;48.750;9.278;2023-02-23T04:50:25;15.30;52.80
3986;DHT22;2007;48.750;9.278;2023-02-23T04:52:55;15.30;52.80
3986;DHT22;2007;48.750;9.278;2023-02-23T04:55:23;15.30;52.80
3986;DHT22;2007;48.750;9.278;2023-02-23T04:57:55;15.30;52.80
3986;DHT22;2007;48.750;9.278;2023-02-23T05:00:24;15.30;52.80
3986;DHT22;2007;48.750;9.278;2023-02-23T05:02:53;15.30;52.80
3986;DHT22;2007;48.750;9.278;2023-02-23T05:05:20;15.30;52.80
3986;DHT22;2007;48.750;9.278;2023-02-23T05:07:48;15.30;52.80
3986;DHT22;2007;48.750;9.278;2023-02-23T05:10:18;15.30;52.80
3986;DHT22;2007;48.750;9.278;2023-02-23T05:12:46;15.30;52.80
3986;DHT22;2007;48.750;9.278;2023-02-23T05:15:13;15.30;52.80
3986;DHT22;2007;48.750;9.278;2023-02-23T05:17:41;15.30;52.80
3986;DHT22;2007;48.750;9.278;2023-02-23T05:20:11;15.30;52.80
3986;DHT22;2007;48.750;9.278;2023-02-23T05:22:39;15.30;52.80
3986;DHT22;2007;48.750;9.278;2023-02-23T05:25:08;15.30;52.80
3986;DHT22;2007;48.750;9.278;2023-02-23T05:27:38;15.30;52.80
3986;DHT22;2007;48.750;9.278;2023-02-23T05:30:07;15.30;52.80
3986;DHT22;2007;48.750;9.278;2023-02-23T05:32:36;15.30;52.80
3986;DHT22;2007;48.750;9.278;2023-02-23T05:35:04;15.30;52.80
3986;DHT22;2007;48.750;9.278;2023-02-23T05:37:32;15.30;52.80
3986;DHT22;2007;48.750;9.278;2023-02-23T05:40:00;15.30;52.80
3986;DHT22;2007;48.750;9.278;2023-02-23T05:42:28;15.30;52.80
3986;DHT22;2007;48.750;9.278;2023-02-23T05:44:57;15.30;52.80
3986;DHT22;2007;48.750;9.278;2023-02-23T05:47:25;15.30;52.80
3986;DHT22;2007;48.750;9.278;2023-02-23T05:49:53;15.30;52.80
3986;DHT22;2007;48.750;9.278;2023-02-23T05:52:21;15.30;52.80
3986;DHT22;2007;48.750;9.278;2023-02-23T05:54:50;15.30;52.80
3986;DHT22;2007;48.750;9.278;2023-02-23T05:57:18;15.30;52.80
3986;DHT22;2007;48.750;9.278;2023-02-23T05:59:45;15.30;52.80
3986;DHT22;2007;48.750;9.278;2023-02-23T06:02:15;15.30;52.80
3986;DHT22;2007;48.750;9.278;2023-02-23T06:04:43;15.30;52.80
3986;DHT22;2007;48.750;9.278;2023-02-23T06:07:12;15.30;52.80
3986;DHT22;2007;48.750;9.278;2023-02-23T06:09:40;15.30;52.80
3986;DHT22;2007;48.750;9.278;2023-02-23T06:12:10;15.30;52.80
3986;DHT22;2007;48.750;9.278;2023-02-23T06:14:38;15.30;52.80
3986;DHT22;2007;48.750;9.278;2023-02-23T06:17:06;15.30;52.80
3986;DHT22;2007;48.750;9.278;2023-02-23T06:19:35;15.30;52.80
3986;DHT22;2007;48.750;9.278;2023-02-23T06:22:03;15.30;52.80
3986;DHT22;2007;48.750;9.278;2023-02-23T06:24:31;15.30;52.80
3986;DHT22;2007;48.750;9.278;2023-02-23T06:27:00;15.30;52.80
3986;DHT22;2007;48.750;9.278;2023-02-23T06:29:28;15.30;52.80
3986;DHT22;2007;48.750;9.278;2023-02-23T06:31:55;15.30;52.80
3986;DHT22;2007;48.750;9.278;2023-02-23T06:34:26;15.30;52.80
3986;DHT22;2007;48.750;9.278;2023-02-23T06:36:56;15.30;52.80
3986;DHT22;2007;48.750;9.278;2023-02-23T06:39:23;15.30;52.90
3986;DHT22;2007;48.750;9.278;2023-02-23T06:41:51;15.30;52.80
3986;DHT22;2007;48.750;9.278;2023-02-23T06:44:19;15.30;52.80
3986;DHT22;2007;48.750;9.278;2023-02-23T06:46:48;15.30;52.90
3986;DHT22;2007;48.750;9.278;2023-02-23T06:49:16;15.30;52.80
3986;DHT22;2007;48.750;9.278;2023-02-23T06:51:44;15.30;52.90
3986;DHT22;2007;48.750;9.278;2023-02-23T06:54:14;15.30;52.80
3986;DHT22;2007;48.750;9.278;2023-02-23T06:56:43;15.30;52.80
3986;DHT22;2007;48.750;9.278;2023-02-23T06:59:11;15.30;52.80
3986;DHT22;2007;48.750;9.278;2023-02-23T07:01:39;15.30;52.80
3986;DHT22;2007;48.750;9.278;2023-02-23T07:04:08;15.30;52.90
3986;DHT22;2007;48.750;9.278;2023-02-23T07:06:36;15.30;52.80
3986;DHT22;2007;48.750;9.278;2023-02-23T07:09:03;15.30;52.90
3986;DHT22;2007;48.750;9.278;2023-02-23T07:11:33;15.30;52.90
3986;DHT22;2007;48.750;9.278;2023-02-23T07:14:02;15.30;52.80
3986;DHT22;2007;48.750;9.278;2023-02-23T07:16:30;15.30;52.80
3986;DHT22;2007;48.750;9.278;2023-02-23T07:18:58;15.30;52.90
3986;DHT22;2007;48.750;9.278;2023-02-23T07:21:26;15.30;52.80
3986;DHT22;2007;48.750;9.278;2023-02-23T07:23:54;15.30;52.80
3986;DHT22;2007;48.750;9.278;2023-02-23T07:26:22;15.30;52.90
3986;DHT22;2007;48.750;9.278;2023-02-23T07:28:51;15.30;52.90
3986;DHT22;2007;48.750;9.278;2023-02-23T07:31:19;15.30;52.80
3986;DHT22;2007;48.750;9.278;2023-02-23T07:33:48;15.30;52.90
3986;DHT22;2007;48.750;9.278;2023-02-23T07:36:16;15.30;53.60
3986;DHT22;2007;48.750;9.278;2023-02-23T07:38:44;15.30;52.90
3986;DHT22;2007;48.750;9.278;2023-02-23T07:41:11;15.30;52.90
3986;DHT22;2007;48.750;9.278;2023-02-23T07:43:39;15.30;52.90
3986;DHT22;2007;48.750;9.278;2023-02-23T07:46:09;15.30;52.90
3986;DHT22;2007;48.750;9.278;2023-02-23T07:48:38;15.30;52.90
3986;DHT22;2007;48.750;9.278;2023-02-23T07:51:08;15.30;52.90
3986;DHT22;2007;48.750;9.278;2023-02-23T07:53:37;15.30;52.90
3986;DHT22;2007;48.750;9.278;2023-02-23T07:56:06;15.30;52.90
3986;DHT22;2007;48.750;9.278;2023-02-23T07:58:36;15.30;52.90
3986;DHT22;2007;48.750;9.278;2023-02-23T08:01:04;15.30;52.90
3986;DHT22;2007;48.750;9.278;2023-02-23T08:03:34;15.30;52.90
3986;DHT22;2007;48.750;9.278;2023-02-23T08:06:01;15.30;52.90
3986;DHT22;2007;48.750;9.278;2023-02-23T08:08:29;15.30;52.90
3986;DHT22;2007;48.750;9.278;2023-02-23T08:10:59;15.30;52.90
3986;DHT22;2007;48.750;9.278;2023-02-23T08:13:27;15.30;52.90
3986;DHT22;2007;48.750;9.278;2023-02-23T08:15:55;15.30;52.90
3986;DHT22;2007;48.750;9.278;2023-02-23T08:18:23;15.30;52.90
3986;DHT22;2007;48.750;9.278;2023-02-23T08:20:58;15.30;52.90
3986;DHT22;2007;48.750;9.278;2023-02-23T08:23:28;15.30;52.90
3986;DHT22;2007;48.750;9.278;2023-02-23T08:25:56;15.30;52.90
3986;DHT22;2007;48.750;9.278;2023-02-23T08:28:25;15.30;52.90
3986;DHT22;2007;48.750;9.278;2023-02-23T08:30:53;15.30;52.90
3986;DHT22;2007;48.750;9.278;2023-02-23T08:33:22;15.30;52.90
3986;DHT22;2007;48.750;9.278;2023-02-23T08:35:49;15.30;52.90
3986;DHT22;2007;48.750;9.278;2023-02-23T08:38:20;15.30;52.90
3986;DHT22;2007;48.750;9.278;2023-02-23T08:40:48;15.30;52.90
3986;DHT22;2007;48.750;9.278;2023-02-23T08:43:16;15.30;52.90
3986;DHT22;2007;48.750;9.278;2023-02-23T08:45:44;15.30;52.90
3986;DHT22;2007;48.750;9.278;2023-02-23T08:48:12;15.30;52.90
3986;DHT22;2007;48.750;9.278;2023-02-23T08:50:39;15.30;52.90
3986;DHT22;2007;48.750;9.278;2023-02-23T08:53:07;15.30;52.90
3986;DHT22;2007;48.750;9.278;2023-02-23T08:55:38;15.30;52.90
3986;DHT22;2007;48.750;9.278;2023-02-23T08:58:06;15.30;52.90
3986;DHT22;2007;48.750;9.278;2023-02-23T09:00:35;15.30;52.90
3986;DHT22;2007;48.750;9.278;2023-02-23T09:03:03;15.30;52.90
3986;DHT22;2007;48.750;9.278;2023-02-23T09:05:35;15.30;52.90
3986;DHT22;2007;48.750;9.278;2023-02-23T09:08:03;15.30;52.90
3986;DHT22;2007;48.750;9.278;2023-02-23T09:10:32;15.30;52.90
3986;DHT22;2007;48.750;9.278;2023-02-23T09:13:02;15.30;52.90
3986;DHT22;2007;48.750;9.278;2023-02-23T09:15:30;15.30;53.00
3986;DHT22;2007;48.750;9.278;2023-02-23T09:17:59;15.30;53.00
3986;DHT22;2007;48.750;9.278;2023-02-23T09:20:28;15.30;53.00
3986;DHT22;2007;48.750;9.278;2023-02-23T09:22:56;15.30;53.00
3986;DHT22;2007;48.750;9.278;2023-02-23T09:25:24;15.30;53.00
3986;DHT22;2007;48.750;9.278;2023-02-23T09:27:54;15.30;53.00
3986;DHT22;2007;48.750;9.278;2023-02-23T09:30:24;15.30;53.00
3986;DHT22;2007;48.750;9.278;2023-02-23T09:32:54;15.30;53.00
3986;DHT22;2007;48.750;9.278;2023-02-23T09:35:23;15.30;53.00
3986;DHT22;2007;48.750;9.278;2023-02-23T09:37:53;15.30;53.00
3986;DHT22;2007;48.750;9.278;2023-02-23T09:40:23;15.30;53.00
3986;DHT22;2007;48.750;9.278;2023-02-23T09:42:57;15.30;53.00
3986;DHT22;2007;48.750;9.278;2023-02-23T09:45:34;15.30;53.00
3986;DHT22;2007;48.750;9.278;2023-02-23T09:48:13;15.30;53.00
3986;DHT22;2007;48.750;9.278;2023-02-23T09:50:48;15.30;53.00
3986;DHT22;2007;48.750;9.278;2023-02-23T09:53:25;15.30;53.00
3986;DHT22;2007;48.750;9.278;2023-02-23T09:55:56;15.30;53.00
3986;DHT22;2007;48.750;9.278;2023-02-23T09:58:26;15.30;53.00
3986;DHT22;2007;48.750;9.278;2023-02-23T10:01:08;15.30;53.00
3986;DHT22;2007;48.750;9.278;2023-02-23T10:03:44;15.30;53.00
3986;DHT22;2007;48.750;9.278;2023-02-23T10:06:17;15.30;53.00
3986;DHT22;2007;48.750;9.278;2023-02-23T10:08:54;15.30;53.00
3986;DHT22;2007;48.750;9.278;2023-02-23T10:11:27;15.30;53.00
3986;DHT22;2007;48.750;9.278;2023-02-23T10:14:11;15.30;53.00
3986;DHT22;2007;48.750;9.278;2023-02-23T10:16:53;15.30;53.10
3986;DHT22;2007;48.750;9.278;2023-02-23T10:19:32;15.30;53.00
3986;DHT22;2007;48.750;9.278;2023-02-23T10:22:03;15.30;53.00
3986;DHT22;2007;48.750;9.278;2023-02-23T10:24:35;15.30;53.00
3986;DHT22;2007;48.750;9.278;2023-02-23T10:27:07;15.30;53.00
3986;DHT22;2007;48.750;9.278;2023-02-23T10:29:41;15.30;53.00
3986;DHT22;2007;48.750;9.278;2023-02-23T10:32:20;15.30;53.00
3986;DHT22;2007;48.750;9.278;2023-02-23T10:34:52;15.30;53.00
3986;DHT22;2007;48.750;9.278;2023-02-23T10:37:22;15.30;53.00
3986;DHT22;2007;48.750;9.278;2023-02-23T10:39:51;15.30;53.00
3986;DHT22;2007;48.750;9.278;2023-02-23T10:42:22;15.30;53.00
3986;DHT22;2007;48.750;9.278;2023-02-23T10:44:55;15.30;53.00
3986;DHT22;2007;48.750;9.278;2023-02-23T10:47:27;15.30;53.00
3986;DHT22;2007;48.750;9.278;2023-02-23T10:49:57;15.30;53.00
3986;DHT22;2007;48.750;9.278;2023-02-23T10:52:28;15.30;53.00
3986;DHT22;2007;48.750;9.278;2023-02-23T10:54:58;15.30;53.00
3986;DHT22;2007;48.750;9.278;2023-02-23T10:57:30;15.30;53.00
3986;DHT22;2007;48.750;9.278;2023-02-23T11:00:07;15.30;53.00
3986;DHT22;2007;48.750;9.278;2023-02-23T11:02:36;15.30;53.00
3986;DHT22;2007;48.750;9.278;2023-02-23T11:05:05;15.30;53.10
3986;DHT22;2007;48.750;9.278;2023-02-23T11:07:33;15.30;53.10
3986;DHT22;2007;48.750;9.278;2023-02-23T11:10:27;15.30;53.00
3986;DHT22;2007;48.750;9.278;2023-02-23T11:12:55;15.30;53.00
3986;DHT22;2007;48.750;9.278;2023-02-23T11:15:28;15.30;53.10
3986;DHT22;2007;48.750;9.278;2023-02-23T11:18:21;15.30;53.10
3986;DHT22;2007;48.750;9.278;2023-02-23T11:20:52;15.30;53.10
3986;DHT22;2007;48.750;9.278;2023-02-23T11:23:23;15.30;53.10
3986;DHT22;2007;48.750;9.278;2023-02-23T11:25:57;15.30;53.70
3986;DHT22;2007;48.750;9.278;2023-02-23T11:28:29;15.30;53.10
3986;DHT22;2007;48.750;9.278;2023-02-23T11:31:01;15.30;53.10
3986;DHT22;2007;48.750;9.278;2023-02-23T11:33:32;15.30;53.00
3986;DHT22;2007;48.750;9.278;2023-02-23T11:36:16;15.30;53.10
3986;DHT22;2007;48.750;9.278;2023-02-23T11:38:46;15.30;53.10
3986;DHT22;2007;48.750;9.278;2023-02-23T11:41:19;15.30;53.10
3986;DHT22;2007;48.750;9.278;2023-02-23T11:43:49;15.30;53.10
3986;DHT22;2007;48.750;9.278;2023-02-23T11:46:19;15.30;53.10
3986;DHT22;2007;48.750;9.278;2023-02-23T11:48:52;15.30;53.10
3986;DHT22;2007;48.750;9.278;2023-02-23T11:51:27;15.30;53.10
3986;DHT22;2007;48.750;9.278;2023-02-23T11:53:56;15.30;53.10
3986;DHT22;2007;48.750;9.278;2023-02-23T11:56:25;15.30;53.10
3986;DHT22;2007;48.750;9.278;2023-02-23T11:58:55;15.30;53.00
3986;DHT22;2007;48.750;9.278;2023-02-23T12:01:36;15.30;53.10
3986;DHT22;2007;48.750;9.278;2023-02-23T12:04:09;15.30;53.10
3986;DHT22;2007;48.750;9.278;2023-02-23T12:06:49;15.30;53.10
3986;DHT22;2007;48.750;9.278;2023-02-23T12:09:22;15.30;53.10
3986;DHT22;2007;48.750;9.278;2023-02-23T12:11:58;15.30;53.10
3986;DHT22;2007;48.750;9.278;2023-02-23T12:14:31;15.40;53.20
3986;DHT22;2007;48.750;9.278;2023-02-23T12:17:03;15.30;53.10
3986;DHT22;2007;48.750;9.278;2023-02-23T12:19:39;15.30;53.10
3986;DHT22;2007;48.750;9.278;2023-02-23T12:22:12;15.30;53.10
3986;DHT22;2007;48.750;9.278;2023-02-23T12:24:43;15.30;53.10
3986;DHT22;2007;48.750;9.278;2023-02-23T12:27:15;15.30;53.10
3986;DHT22;2007;48.750;9.278;2023-02-23T12:29:58;15.30;53.10
3986;DHT22;2007;48.750;9.278;2023-02-23T12:32:40;15.30;53.10
3986;DHT22;2007;48.750;9.278;2023-02-23T12:35:15;15.40;53.20
3986;DHT22;2007;48.750;9.278;2023-02-23T12:37:47;15.30;53.10
3986;DHT22;2007;48.750;9.278;2023-02-23T12:40:20;15.40;53.20
3986;DHT22;2007;48.750;9.278;2023-02-23T12:42:55;15.30;53.10
3986;DHT22;2007;48.750;9.278;2023-02-23T12:45:28;15.40;53.20
3986;DHT22;2007;48.750;9.278;2023-02-23T12:48:03;15.40;53.20
3986;DHT22;2007;48.750;9.278;2023-02-23T12:50:39;15.40;53.20
3986;DHT22;2007;48.750;9.278;2023-02-23T12:53:18;15.40;53.20
3986;DHT22;2007;48.750;9.278;2023-02-23T12:55:58;15.40;53.20
3986;DHT22;2007;48.750;9.278;2023-02-23T12:58:37;15.40;53.20
3986;DHT22;2007;48.750;9.278;2023-02-23T13:01:09;15.40;53.20
3986;DHT22;2007;48.750;9.278;2023-02-23T13:03:54;15.40;53.20
3986;DHT22;2007;48.750;9.278;2023-02-23T13:06:34;15.40;53.20
3986;DHT22;2007;48.750;9.278;2023-02-23T13:09:17;15.40;53.20
3986;DHT22;2007;48.750;9.278;2023-02-23T13:12:00;15.40;53.20
3986;DHT22;2007;48.750;9.278;2023-02-23T13:14:37;15.40;53.20
3986;DHT22;2007;48.750;9.278;2023-02-23T13:17:23;15.40;53.20
3986;DHT22;2007;48.750;9.278;2023-02-23T13:19:57;15.40;53.20
3986;DHT22;2007;48.750;9.278;2023-02-23T13:22:33;15.40;53.20
3986;DHT22;2007;48.750;9.278;2023-02-23T13:25:14;15.40;53.20
3986;DHT22;2007;48.750;9.278;2023-02-23T13:27:49;15.40;53.20
3986;DHT22;2007;48.750;9.278;2023-02-23T13:30:18;15.40;53.20
3986;DHT22;2007;48.750;9.278;2023-02-23T13:32:48;15.40;53.20
3986;DHT22;2007;48.750;9.278;2023-02-23T13:35:18;15.40;53.20
3986;DHT22;2007;48.750;9.278;2023-02-23T13:37:52;15.40;53.20
3986;DHT22;2007;48.750;9.278;2023-02-23T13:40:28;15.40;53.20
3986;DHT22;2007;48.750;9.278;2023-02-23T13:43:04;15.40;53.20
3986;DHT22;2007;48.750;9.278;2023-02-23T13:45:51;15.40;53.20
3986;DHT22;2007;48.750;9.278;2023-02-23T13:48:37;15.40;53.20
3986;DHT22;2007;48.750;9.278;2023-02-23T13:51:29;15.40;53.20
3986;DHT22;2007;48.750;9.278;2023-02-23T13:54:04;15.40;53.20
3986;DHT22;2007;48.750;9.278;2023-02-23T13:56:41;15.40;53.20
3986;DHT22;2007;48.750;9.278;2023-02-23T13:59:16;15.40;53.20
3986;DHT22;2007;48.750;9.278;2023-02-23T14:01:46;15.40;53.20
3986;DHT22;2007;48.750;9.278;2023-02-23T14:04:20;15.40;53.10
3986;DHT22;2007;48.750;9.278;2023-02-23T14:06:53;15.40;53.20
3986;DHT22;2007;48.750;9.278;2023-02-23T14:09:28;15.40;53.20
3986;DHT22;2007;48.750;9.278;2023-02-23T14:12:10;15.40;53.20
3986;DHT22;2007;48.750;9.278;2023-02-23T14:14:43;15.40;53.20
3986;DHT22;2007;48.750;9.278;2023-02-23T14:17:54;15.40;53.20
3986;DHT22;2007;48.750;9.278;2023-02-23T14:20:42;15.40;53.10
3986;DHT22;2007;48.750;9.278;2023-02-23T14:23:32;15.40;53.20
3986;DHT22;2007;48.750;9.278;2023-02-23T14:26:14;15.40;53.10
3986;DHT22;2007;48.750;9.278;2023-02-23T14:28:45;15.40;53.10
3986;DHT22;2007;48.750;9.278;2023-02-23T14:31:20;15.40;53.20
3986;DHT22;2007;48.750;9.278;2023-02-23T14:33:55;15.40;53.20
3986;DHT22;2007;48.750;9.278;2023-02-23T14:36:35;15.40;53.10
3986;DHT22;2007;48.750;9.278;2023-02-23T14:39:08;15.40;53.10
3986;DHT22;2007;48.750;9.278;2023-02-23T14:41:45;15.40;53.20
3986;DHT22;2007;48.750;9.278;2023-02-23T14:44:18;15.40;53.20
3986;DHT22;2007;48.750;9.278;2023-02-23T14:47:00;15.40;53.10
3986;DHT22;2007;48.750;9.278;2023-02-23T14:49:31;15.40;53.10
3986;DHT22;2007;48.750;9.278;2023-02-23T14:52:05;15.40;53.20
3986;DHT22;2007;48.750;9.278;2023-02-23T14:54:35;15.40;53.10
3986;DHT22;2007;48.750;9.278;2023-02-23T14:57:13;15.40;53.10
3986;DHT22;2007;48.750;9.278;2023-02-23T14:59:44;15.40;53.20
3986;DHT22;2007;48.750;9.278;2023-02-23T15:02:17;15.40;53.10
3986;DHT22;2007;48.750;9.278;2023-02-23T15:04:45;15.40;53.20
3986;DHT22;2007;48.750;9.278;2023-02-23T15:07:15;15.40;53.10
3986;DHT22;2007;48.750;9.278;2023-02-23T15:09:52;15.40;53.20
3986;DHT22;2007;48.750;9.278;2023-02-23T15:12:23;15.40;53.10
3986;DHT22;2007;48.750;9.278;2023-02-23T15:14:56;15.40;53.20
3986;DHT22;2007;48.750;9.278;2023-02-23T15:17:27;15.40;53.10
3986;DHT22;2007;48.750;9.278;2023-02-23T15:19:58;15.40;53.20
3986;DHT22;2007;48.750;9.278;2023-02-23T15:22:45;15.40;53.20
3986;DHT22;2007;48.750;9.278;2023-02-23T15:25:16;15.40;53.10
3986;DHT22;2007;48.750;9.278;2023-02-23T15:27:47;15.40;53.10
3986;DHT22;2007;48.750;9.278;2023-02-23T15:30:23;15.40;53.20
3986;DHT22;2007;48.750;9.278;2023-02-23T15:33:00;15.40;53.10
3986;DHT22;2007;48.750;9.278;2023-02-23T15:35:29;15.40;53.10
3986;DHT22;2007;48.750;9.278;2023-02-23T15:37:58;15.40;53.10
3986;DHT22;2007;48.750;9.278;2023-02-23T15:40:44;15.40;53.20
3986;DHT22;2007;48.750;9.278;2023-02-23T15:43:13;15.40;53.10
3986;DHT22;2007;48.750;9.278;2023-02-23T15:45:43;15.40;53.20
3986;DHT22;2007;48.750;9.278;2023-02-23T15:48:17;15.40;53.10
3986;DHT22;2007;48.750;9.278;2023-02-23T15:50:47;15.40;53.10
3986;DHT22;2007;48.750;9.278;2023-02-23T15:53:26;15.50;53.20
3986;DHT22;2007;48.750;9.278;2023-02-23T15:56:00;15.50;53.20
3986;DHT22;2007;48.750;9.278;2023-02-23T15:58:36;15.50;53.20
3986;DHT22;2007;48.750;9.278;2023-02-23T16:01:20;15.50;53.20
3986;DHT22;2007;48.750;9.278;2023-02-23T16:04:04;15.50;53.20
3986;DHT22;2007;48.750;9.278;2023-02-23T16:06:34;15.50;53.20
3986;DHT22;2007;48.750;9.278;2023-02-23T16:09:12;15.50;53.20
3986;DHT22;2007;48.750;9.278;2023-02-23T16:11:48;15.50;53.20
3986;DHT22;2007;48.750;9.278;2023-02-23T16:14:19;15.50;53.20
3986;DHT22;2007;48.750;9.278;2023-02-23T16:16:48;15.50;53.20
3986;DHT22;2007;48.750;9.278;2023-02-23T16:19:36;15.50;53.20
3986;DHT22;2007;48.750;9.278;2023-02-23T16:22:17;15.50;53.20
3986;DHT22;2007;48.750;9.278;2023-02-23T16:24:52;15.50;53.20
3986;DHT22;2007;48.750;9.278;2023-02-23T16:27:23;15.50;53.20
3986;DHT22;2007;48.750;9.278;2023-02-23T16:29:57;15.50;53.20
3986;DHT22;2007;48.750;9.278;2023-02-23T16:32:35;15.50;53.20
3986;DHT22;2007;48.750;9.278;2023-02-23T16:35:14;15.50;53.20
3986;DHT22;2007;48.750;9.278;2023-02-23T16:37:54;15.50;53.20
3986;DHT22;2007;48.750;9.278;2023-02-23T16:40:23;15.50;53.20
3986;DHT22;2007;48.750;9.278;2023-02-23T16:42:50;15.50;53.20
3986;DHT22;2007;48.750;9.278;2023-02-23T16:45:21;15.50;53.20
3986;DHT22;2007;48.750;9.278;2023-02-23T16:47:50;15.50;53.20
3986;DHT22;2007;48.750;9.278;2023-02-23T16:50:20;15.50;53.20
3986;DHT22;2007;48.750;9.278;2023-02-23T16:52:50;15.50;53.20
3986;DHT22;2007;48.750;9.278;2023-02-23T16:55:19;15.50;53.20